Time;durP1;ratioP1;P1;durP2;ratioP2;P2;SDS_P1;SDS_P2;PMS_P1;PMS_P2;Temp;Humidity;BMP_temperature;BMP_pressure;BME280_temperature;BME280_humidity;BME280_pressure;Samples;Min_cycle;Max_cycle;Signal;HPM_P1;HPM_P2
2022/09/18 00:01:15;;;;;;;7.70;1.65;;;10.00;99.90;;;;;;5053244;28;20041;-64
2022/09/18 00:03:42;;;;;;;10.10;2.28;;;10.10;99.90;;;;;;5048382;28;20091;-64
2022/09/18 00:06:10;;;;;;;7.55;1.77;;;10.20;99.90;;;;;;5049784;28;20488;-65
2022/09/18 00:08:39;;;;;;;9.93;2.30;;;10.20;99.90;;;;;;5049370;28;20132;-66
2022/09/18 00:11:07;;;;;;;13.43;2.13;;;10.30;99.90;;;;;;5044919;28;20090;-66
2022/09/18 00:13:34;;;;;;;11.25;2.03;;;10.30;99.90;;;;;;5049036;28;20040;-66
2022/09/18 00:16:00;;;;;;;13.23;2.28;;;10.40;99.90;;;;;;5053516;28;20059;-65
2022/09/18 00:18:26;;;;;;;12.52;1.90;;;10.40;99.90;;;;;;5054090;28;20418;-66
2022/09/18 00:20:52;;;;;;;9.70;1.80;;;10.40;99.90;;;;;;5052473;28;20436;-65
2022/09/18 00:23:17;;;;;;;7.25;1.88;;;10.40;99.90;;;;;;5052215;28;20578;-64
2022/09/18 00:25:43;;;;;;;5.75;1.50;;;10.40;99.90;;;;;;5053636;28;20098;-64
2022/09/18 00:28:09;;;;;;;14.60;2.25;;;10.40;99.90;;;;;;5049346;28;20036;-65
2022/09/18 00:30:34;;;;;;;10.55;1.80;;;10.40;99.90;;;;;;5057666;28;20085;-65
2022/09/18 00:33:00;;;;;;;6.70;1.80;;;10.40;99.90;;;;;;5052796;28;20032;-64
2022/09/18 00:35:25;;;;;;;8.73;1.67;;;10.30;99.90;;;;;;5061085;28;20036;-65
2022/09/18 00:37:51;;;;;;;14.95;1.65;;;10.30;99.90;;;;;;5058492;28;20044;-65
2022/09/18 00:40:17;;;;;;;12.27;1.95;;;10.20;99.90;;;;;;5053237;28;20106;-64
2022/09/18 00:42:43;;;;;;;8.70;2.08;;;10.20;99.90;;;;;;5052910;28;20045;-65
2022/09/18 00:45:09;;;;;;;7.25;1.45;;;10.20;99.90;;;;;;5050437;28;20423;-64
2022/09/18 00:47:46;;;;;;;10.60;2.47;;;10.10;99.90;;;;;;5052576;28;20037;-64
2022/09/18 00:50:23;;;;;;;12.60;1.92;;;10.10;99.90;;;;;;5050800;28;20384;-68
2022/09/18 00:52:55;;;;;;;14.32;1.90;;;10.00;99.90;;;;;;5055208;28;20037;-64
2022/09/18 00:55:31;;;;;;;8.57;1.88;;;10.00;99.90;;;;;;5052699;28;20056;-64
2022/09/18 00:57:59;;;;;;;13.55;1.98;;;10.00;99.90;;;;;;5052884;28;20041;-64
2022/09/18 01:00:25;;;;;;;10.82;2.10;;;9.90;99.90;;;;;;5042607;28;20073;-64
2022/09/18 01:02:51;;;;;;;9.35;2.05;;;9.90;99.90;;;;;;5052609;28;20458;-63
2022/09/18 01:05:43;;;;;;;11.27;1.58;;;9.90;99.90;;;;;;5052526;28;20037;-64
2022/09/18 01:08:41;;;;;;;15.35;2.30;;;9.90;99.90;;;;;;5039876;28;20080;-63
2022/09/18 01:11:26;;;;;;;9.75;2.17;;;9.90;99.90;;;;;;5054681;28;20194;-64
2022/09/18 01:14:10;;;;;;;5.55;1.60;;;10.00;99.90;;;;;;5052676;28;20175;-65
2022/09/18 01:17:01;;;;;;;11.05;1.92;;;10.00;99.90;;;;;;5053954;28;20041;-66
2022/09/18 01:20:16;;;;;;;10.85;2.30;;;10.10;99.90;;;;;;5045172;28;20057;-63
2022/09/18 01:23:07;;;;;;;11.13;2.55;;;10.10;99.90;;;;;;4973834;28;20057;-64
2022/09/18 01:26:09;;;;;;;15.13;2.17;;;10.20;99.90;;;;;;4960758;28;20059;-64
2022/09/18 01:28:41;;;;;;;11.90;1.92;;;10.20;99.90;;;;;;5043778;28;20406;-64
2022/09/18 01:31:12;;;;;;;;;;;10.30;99.90;;;;;;5052364;28;20075;-64
2022/09/18 01:33:48;;;;;;;10.32;2.00;;;10.40;99.90;;;;;;5051244;28;19916;-64
2022/09/18 01:36:18;;;;;;;11.75;2.00;;;10.50;99.90;;;;;;5051835;28;20032;-64
2022/09/18 01:38:52;;;;;;;11.57;1.50;;;10.50;99.90;;;;;;5052229;28;20407;-65
2022/09/18 01:41:25;;;;;;;12.52;1.73;;;10.60;99.90;;;;;;5048355;28;20083;-65
2022/09/18 01:44:00;;;;;;;14.57;2.22;;;10.60;99.90;;;;;;5051823;28;20033;-66
2022/09/18 01:46:26;;;;;;;10.82;1.85;;;10.60;99.90;;;;;;5049197;28;20045;-66
2022/09/18 01:49:09;;;;;;;7.95;1.63;;;10.70;99.90;;;;;;5051815;28;20422;-66
2022/09/18 01:51:52;;;;;;;8.90;2.05;;;10.70;99.90;;;;;;5049739;28;20041;-64
2022/09/18 01:54:25;;;;;;;6.45;1.50;;;10.70;99.90;;;;;;5050355;28;20046;-66
2022/09/18 01:56:56;;;;;;;11.23;1.98;;;10.80;99.90;;;;;;5049764;28;20108;-62
2022/09/18 01:59:38;;;;;;;10.70;1.83;;;10.80;99.90;;;;;;5050577;28;20041;-66
2022/09/18 02:02:08;;;;;;;10.38;1.80;;;10.80;99.90;;;;;;5051131;28;20389;-66
2022/09/18 02:04:37;;;;;;;13.88;1.52;;;10.80;99.90;;;;;;5051561;28;20037;-66
2022/09/18 02:07:13;;;;;;;10.73;2.00;;;10.80;99.90;;;;;;5051540;28;20410;-65
2022/09/18 02:09:39;;;;;;;11.65;1.70;;;10.80;99.90;;;;;;5048874;28;20087;-65
2022/09/18 02:12:08;;;;;;;11.93;2.00;;;10.80;99.90;;;;;;5051502;28;20037;-66
2022/09/18 02:14:39;;;;;;;13.77;1.90;;;10.80;99.90;;;;;;5042433;28;20048;-66
2022/09/18 02:17:14;;;;;;;8.98;1.63;;;10.80;99.90;;;;;;5040471;28;20048;-66
2022/09/18 02:20:04;;;;;;;8.25;1.63;;;10.80;99.90;;;;;;5051036;28;20515;-66
2022/09/18 02:22:33;;;;;;;9.13;1.83;;;10.90;99.90;;;;;;5051330;28;20059;-65
2022/09/18 02:25:03;;;;;;;7.90;1.77;;;10.90;99.90;;;;;;5041717;28;20299;-64
2022/09/18 02:27:32;;;;;;;9.23;2.22;;;10.90;99.90;;;;;;5050607;28;20055;-64
2022/09/18 02:30:00;;;;;;;8.88;2.08;;;10.90;99.90;;;;;;5051241;28;20064;-65
2022/09/18 02:32:26;;;;;;;11.15;1.80;;;10.90;99.90;;;;;;5054877;28;20068;-64
2022/09/18 02:34:51;;;;;;;11.07;1.65;;;10.90;99.90;;;;;;5049416;28;20098;-66
2022/09/18 02:37:38;;;;;;;7.72;1.60;;;10.90;99.90;;;;;;5051231;28;20040;-66
2022/09/18 02:40:51;;;;;;;13.30;1.88;;;10.90;99.90;;;;;;5038611;28;20486;-66
2022/09/18 02:43:35;;;;;;;7.30;1.70;;;11.00;99.90;;;;;;4965691;28;20057;-66
2022/09/18 02:46:18;;;;;;;16.52;2.13;;;11.00;99.90;;;;;;5029101;28;20080;-66
2022/09/18 02:48:58;;;;;;;7.10;2.05;;;11.00;99.90;;;;;;5047142;28;20040;-65
2022/09/18 02:51:35;;;;;;;9.13;1.70;;;11.00;99.90;;;;;;5047706;28;20267;-65
2022/09/18 02:54:06;;;;;;;11.20;1.63;;;11.10;99.90;;;;;;5049463;28;20056;-64
2022/09/18 02:56:38;;;;;;;9.10;1.52;;;11.10;99.90;;;;;;5055049;28;20067;-64
2022/09/18 02:59:21;;;;;;;10.00;1.70;;;11.10;99.90;;;;;;5051627;28;20552;-65
2022/09/18 03:01:47;;;;;;;7.63;1.70;;;11.10;99.90;;;;;;5050752;28;20041;-66
2022/09/18 03:04:18;;;;;;;12.77;1.70;;;11.20;99.90;;;;;;5050842;28;20040;-65
2022/09/18 03:06:43;;;;;;;12.30;1.95;;;11.20;99.90;;;;;;5055461;28;20123;-64
2022/09/18 03:09:09;;;;;;;9.93;1.73;;;11.20;99.90;;;;;;5050265;28;20116;-64
2022/09/18 03:11:36;;;;;;;6.30;1.60;;;11.30;99.90;;;;;;5047715;28;20100;-66
2022/09/18 03:14:02;;;;;;;5.72;1.50;;;11.30;99.90;;;;;;5054940;28;20083;-64
2022/09/18 03:16:27;;;;;;;7.70;1.42;;;11.30;99.90;;;;;;5052359;28;20047;-63
2022/09/18 03:18:53;;;;;;;12.82;1.73;;;11.30;99.90;;;;;;5050554;28;20036;-65
2022/09/18 03:21:19;;;;;;;10.27;1.50;;;11.30;99.90;;;;;;5040119;28;20049;-67
2022/09/18 03:23:45;;;;;;;9.88;1.50;;;11.30;99.90;;;;;;5050157;28;20045;-66
2022/09/18 03:26:11;;;;;;;8.05;1.55;;;11.30;99.90;;;;;;5050218;28;20044;-64
2022/09/18 03:28:37;;;;;;;10.88;1.50;;;11.30;99.90;;;;;;5049834;28;20048;-64
2022/09/18 03:31:03;;;;;;;7.47;1.35;;;11.40;99.90;;;;;;5053171;28;20115;-63
2022/09/18 03:33:29;;;;;;;6.25;1.48;;;11.40;99.90;;;;;;5051534;28;20029;-63
2022/09/18 03:35:54;;;;;;;7.80;1.52;;;11.40;99.90;;;;;;5050562;28;20048;-65
2022/09/18 03:38:20;;;;;;;4.43;1.20;;;11.40;99.90;;;;;;5048750;28;20037;-65
2022/09/18 03:40:46;;;;;;;5.10;1.30;;;11.40;99.90;;;;;;5049390;28;20104;-64
2022/09/18 03:43:11;;;;;;;11.55;1.48;;;11.40;99.90;;;;;;5048929;28;20033;-65
2022/09/18 03:45:37;;;;;;;6.95;1.58;;;11.40;99.90;;;;;;5050844;28;20037;-65
2022/09/18 03:48:03;;;;;;;7.13;1.50;;;11.40;99.90;;;;;;5054154;28;20487;-65
2022/09/18 03:50:29;;;;;;;9.35;1.63;;;11.40;99.90;;;;;;5052002;28;20492;-66
2022/09/18 03:52:55;;;;;;;5.75;1.40;;;11.40;99.90;;;;;;5053039;28;20047;-66
2022/09/18 03:55:21;;;;;;;4.65;1.10;;;11.40;99.90;;;;;;5057347;28;20068;-65
2022/09/18 03:57:47;;;;;;;9.32;1.95;;;11.40;99.90;;;;;;5047747;28;20051;-66
2022/09/18 04:00:14;;;;;;;8.05;1.33;;;11.30;99.90;;;;;;5054323;28;20083;-65
2022/09/18 04:02:41;;;;;;;10.38;1.58;;;11.30;99.90;;;;;;5051276;28;20041;-66
2022/09/18 04:05:06;;;;;;;8.23;1.35;;;11.30;99.90;;;;;;5064222;28;20029;-64
2022/09/18 04:07:32;;;;;;;10.50;1.75;;;11.30;99.90;;;;;;5053182;28;20480;-66
2022/09/18 04:09:58;;;;;;;8.52;1.52;;;11.30;99.90;;;;;;5053785;28;20037;-66
2022/09/18 04:12:24;;;;;;;6.57;1.65;;;11.30;99.90;;;;;;5058092;28;20148;-65
2022/09/18 04:14:49;;;;;;;8.05;1.20;;;11.20;99.90;;;;;;5053558;28;20028;-65
2022/09/18 04:17:15;;;;;;;7.82;1.30;;;11.20;99.90;;;;;;5053912;28;20505;-66
2022/09/18 04:19:41;;;;;;;6.20;1.55;;;11.20;99.90;;;;;;5042300;28;20475;-65
2022/09/18 04:22:07;;;;;;;10.68;1.50;;;11.20;99.90;;;;;;5052585;28;20519;-66
2022/09/18 04:24:34;;;;;;;4.30;1.40;;;11.10;99.90;;;;;;5053075;28;20039;-66
2022/09/18 04:26:59;;;;;;;11.80;1.88;;;11.00;99.90;;;;;;5051081;28;20116;-65
2022/09/18 04:29:25;;;;;;;5.95;1.40;;;11.10;99.90;;;;;;5064623;28;20151;-66
2022/09/18 04:31:51;;;;;;;8.05;1.70;;;11.00;99.90;;;;;;5052759;28;20029;-66
2022/09/18 04:34:16;;;;;;;9.68;1.85;;;11.00;99.90;;;;;;5053658;28;20041;-65
2022/09/18 04:36:42;;;;;;;5.63;1.50;;;11.00;99.90;;;;;;5042403;28;20041;-63
2022/09/18 04:39:07;;;;;;;5.60;1.13;;;11.00;99.90;;;;;;5051907;28;20094;-65
2022/09/18 04:41:33;;;;;;;8.60;1.30;;;11.00;99.90;;;;;;5052761;28;20396;-65
2022/09/18 04:43:59;;;;;;;5.45;1.50;;;11.00;99.90;;;;;;5053546;28;20219;-65
2022/09/18 04:46:24;;;;;;;5.15;1.30;;;11.00;99.90;;;;;;5060697;28;20036;-65
2022/09/18 04:48:52;;;;;;;4.82;1.30;;;10.90;99.90;;;;;;5052650;28;20035;-63
2022/09/18 04:51:17;;;;;;;7.93;1.40;;;11.00;99.90;;;;;;5041097;28;20050;-63
2022/09/18 04:53:43;;;;;;;5.75;1.42;;;10.90;99.90;;;;;;5051910;28;20029;-65
2022/09/18 04:56:08;;;;;;;8.38;1.30;;;10.90;99.90;;;;;;5052287;28;20396;-63
2022/09/18 04:58:34;;;;;;;5.32;1.83;;;10.90;99.90;;;;;;5049865;28;20036;-64
2022/09/18 05:00:59;;;;;;;9.60;1.58;;;11.00;99.90;;;;;;5045456;28;20511;-66
2022/09/18 05:03:25;;;;;;;8.38;1.60;;;10.90;99.90;;;;;;5052082;28;20041;-63
2022/09/18 05:05:51;;;;;;;6.00;1.60;;;10.90;99.90;;;;;;5052588;28;20048;-63
2022/09/18 05:08:17;;;;;;;7.40;1.30;;;11.00;99.90;;;;;;5052378;28;20119;-64
2022/09/18 05:10:43;;;;;;;7.30;1.50;;;11.00;99.90;;;;;;5048328;28;20120;-64
2022/09/18 05:13:09;;;;;;;9.85;1.52;;;11.00;99.90;;;;;;5051267;28;20033;-64
2022/09/18 05:15:34;;;;;;;5.38;1.42;;;11.00;99.90;;;;;;5051960;28;20128;-64
2022/09/18 05:18:02;;;;;;;6.85;1.40;;;11.00;99.90;;;;;;5057593;28;20119;-66
2022/09/18 05:20:29;;;;;;;7.40;1.40;;;11.00;99.90;;;;;;5055274;28;20059;-66
2022/09/18 05:22:55;;;;;;;7.95;1.92;;;11.00;99.90;;;;;;5051297;28;20725;-65
2022/09/18 05:25:23;;;;;;;9.43;1.67;;;11.00;99.90;;;;;;5051076;28;20037;-63
2022/09/18 05:28:00;;;;;;;9.57;2.08;;;11.00;99.90;;;;;;5035705;28;20041;-65
2022/09/18 05:30:26;;;;;;;6.40;1.70;;;11.00;99.90;;;;;;5044896;28;20052;-65
2022/09/18 05:32:57;;;;;;;9.15;1.48;;;11.00;99.90;;;;;;5049145;28;20037;-65
2022/09/18 05:35:24;;;;;;;5.65;1.48;;;11.00;99.90;;;;;;5052071;28;20036;-65
2022/09/18 05:37:51;;;;;;;4.97;1.50;;;11.00;99.90;;;;;;5054029;28;20041;-65
2022/09/18 05:40:17;;;;;;;6.63;1.40;;;11.00;99.90;;;;;;5048804;28;20116;-65
2022/09/18 05:42:47;;;;;;;6.45;1.52;;;11.00;99.90;;;;;;5048876;28;20052;-64
2022/09/18 05:45:13;;;;;;;4.85;1.45;;;11.10;99.90;;;;;;5033809;28;20052;-65
2022/09/18 05:47:40;;;;;;;6.07;1.23;;;11.10;99.90;;;;;;5041067;28;20090;-63
2022/09/18 05:50:07;;;;;;;8.48;1.42;;;11.10;99.90;;;;;;5047167;28;20530;-64
2022/09/18 05:52:32;;;;;;;4.25;1.42;;;11.10;99.90;;;;;;5045716;28;20041;-65
2022/09/18 05:54:58;;;;;;;6.00;1.27;;;11.20;99.90;;;;;;5048744;28;20505;-65
2022/09/18 05:57:24;;;;;;;7.22;1.33;;;11.20;99.90;;;;;;5048728;28;20040;-64
2022/09/18 05:59:49;;;;;;;9.75;1.63;;;11.20;99.90;;;;;;5046715;28;20499;-65
2022/09/18 06:02:15;;;;;;;6.97;1.40;;;11.20;99.90;;;;;;5052264;28;20040;-64
2022/09/18 06:04:41;;;;;;;6.10;1.27;;;11.20;99.90;;;;;;5049228;28;20510;-66
2022/09/18 06:07:06;;;;;;;8.15;1.50;;;11.20;99.90;;;;;;5047943;28;20045;-65
2022/09/18 06:09:32;;;;;;;4.13;1.10;;;11.20;99.90;;;;;;5048184;28;20037;-65
2022/09/18 06:11:57;;;;;;;5.57;1.08;;;11.20;99.90;;;;;;5051119;28;20029;-66
2022/09/18 06:14:23;;;;;;;5.40;1.30;;;11.20;99.90;;;;;;5051621;28;20521;-66
2022/09/18 06:16:49;;;;;;;6.85;1.25;;;11.20;99.90;;;;;;5048831;28;20047;-65
2022/09/18 06:19:15;;;;;;;7.28;1.42;;;11.20;99.90;;;;;;5052875;28;20043;-66
2022/09/18 06:21:40;;;;;;;8.80;1.80;;;11.10;99.90;;;;;;5051163;28;20724;-64
2022/09/18 06:24:07;;;;;;;5.55;1.13;;;11.10;99.90;;;;;;5049740;28;20079;-65
2022/09/18 06:26:33;;;;;;;4.43;1.20;;;11.10;99.90;;;;;;5056606;28;20036;-66
2022/09/18 06:28:59;;;;;;;6.75;1.20;;;11.10;99.90;;;;;;5050988;28;20036;-66
2022/09/18 06:31:24;;;;;;;4.75;1.50;;;11.10;99.90;;;;;;5051763;28;20040;-64
2022/09/18 06:33:50;;;;;;;3.45;1.30;;;11.10;99.90;;;;;;5048212;28;20041;-65
2022/09/18 06:36:16;;;;;;;5.70;1.10;;;11.10;99.90;;;;;;5054657;28;20037;-65
2022/09/18 06:38:41;;;;;;;5.43;1.20;;;11.10;99.90;;;;;;5051459;28;20036;-66
2022/09/18 06:41:10;;;;;;;6.35;1.73;;;11.10;99.90;;;;;;5048143;28;20036;-65
2022/09/18 06:43:36;;;;;;;6.80;1.48;;;11.20;99.90;;;;;;5048741;28;20157;-65
2022/09/18 06:46:03;;;;;;;6.22;1.48;;;11.20;99.90;;;;;;5050688;28;20119;-65
2022/09/18 06:48:29;;;;;;;7.70;1.52;;;11.20;99.90;;;;;;5050719;28;20040;-64
2022/09/18 06:50:56;;;;;;;5.90;1.73;;;11.20;99.90;;;;;;5046818;28;20110;-64
2022/09/18 06:53:23;;;;;;;4.15;1.27;;;11.20;99.90;;;;;;5042892;28;20553;-65
2022/09/18 06:55:49;;;;;;;5.82;1.60;;;11.20;99.90;;;;;;5050798;28;20045;-64
2022/09/18 06:58:17;;;;;;;5.05;1.40;;;11.20;99.90;;;;;;5044308;28;20048;-64
2022/09/18 07:00:43;;;;;;;7.95;1.70;;;11.20;99.90;;;;;;5047196;28;20028;-65
2022/09/18 07:03:09;;;;;;;7.50;1.73;;;11.20;99.90;;;;;;5050245;28;20029;-67
2022/09/18 07:05:40;;;;;;;8.63;1.40;;;11.30;99.90;;;;;;5048260;28;20040;-67
2022/09/18 07:08:06;;;;;;;7.38;1.33;;;11.30;99.90;;;;;;5050438;28;20040;-66
2022/09/18 07:10:32;;;;;;;4.47;1.30;;;11.30;99.90;;;;;;5050096;28;20041;-67
2022/09/18 07:12:58;;;;;;;7.22;1.50;;;11.30;99.90;;;;;;5052096;28;20120;-68
2022/09/18 07:15:25;;;;;;;6.15;1.17;;;11.30;99.90;;;;;;5062017;28;20519;-66
2022/09/18 07:17:55;;;;;;;3.60;1.30;;;11.30;99.90;;;;;;5055231;28;20037;-67
2022/09/18 07:20:20;;;;;;;4.55;1.35;;;11.30;99.90;;;;;;5050283;28;20037;-66
2022/09/18 07:22:54;;;;;;;9.27;1.80;;;11.30;99.90;;;;;;5049444;28;20033;-65
2022/09/18 07:25:20;;;;;;;6.55;1.30;;;11.30;99.90;;;;;;5056605;28;20033;-66
2022/09/18 07:27:46;;;;;;;7.57;1.90;;;11.30;99.90;;;;;;5049779;28;20044;-67
2022/09/18 07:30:12;;;;;;;5.95;1.65;;;11.30;99.90;;;;;;5048636;28;20407;-64
2022/09/18 07:32:37;;;;;;;4.53;1.20;;;11.30;99.90;;;;;;5042003;28;20033;-66
2022/09/18 07:35:03;;;;;;;6.43;1.27;;;11.30;99.90;;;;;;5047487;28;20033;-66
2022/09/18 07:37:29;;;;;;;4.82;1.50;;;11.30;99.90;;;;;;5050220;28;20037;-67
2022/09/18 07:39:54;;;;;;;2.92;1.50;;;11.40;99.90;;;;;;5048822;28;20036;-66
2022/09/18 07:42:20;;;;;;;5.50;1.45;;;11.40;99.90;;;;;;5050724;28;20044;-67
2022/09/18 07:44:46;;;;;;;6.53;1.80;;;11.40;99.90;;;;;;5060615;28;20033;-66
2022/09/18 07:47:11;;;;;;;7.35;1.80;;;11.40;99.90;;;;;;5047582;28;20499;-67
2022/09/18 07:49:37;;;;;;;6.63;1.60;;;11.40;99.90;;;;;;5056552;28;20075;-67
2022/09/18 07:52:04;;;;;;;8.00;1.58;;;11.40;99.90;;;;;;5048844;28;20502;-67
2022/09/18 07:54:30;;;;;;;5.68;1.25;;;11.40;99.90;;;;;;5050253;28;20040;-66
2022/09/18 07:56:55;;;;;;;7.13;1.30;;;11.40;99.90;;;;;;5051678;28;20036;-64
2022/09/18 07:59:21;;;;;;;5.07;1.33;;;11.40;99.90;;;;;;5064880;28;20032;-64
2022/09/18 08:01:47;;;;;;;6.47;1.50;;;11.40;99.90;;;;;;5049734;28;20037;-63
2022/09/18 08:04:13;;;;;;;4.35;1.30;;;11.40;99.90;;;;;;5048903;28;20037;-65
2022/09/18 08:06:38;;;;;;;5.22;1.10;;;11.40;99.90;;;;;;5048622;28;20045;-64
2022/09/18 08:09:04;;;;;;;6.97;1.35;;;11.40;99.90;;;;;;5049617;28;20028;-63
2022/09/18 08:11:30;;;;;;;6.90;1.80;;;11.40;99.90;;;;;;5055659;28;20041;-63
2022/09/18 08:13:56;;;;;;;8.80;1.58;;;11.30;99.90;;;;;;5049082;28;20036;-63
2022/09/18 08:16:21;;;;;;;7.30;1.67;;;11.30;99.90;;;;;;5049939;28;20561;-62
2022/09/18 08:18:47;;;;;;;5.32;1.17;;;11.30;99.90;;;;;;5049787;28;20072;-64
2022/09/18 08:21:13;;;;;;;7.30;1.58;;;11.20;99.90;;;;;;5044186;28;20092;-63
2022/09/18 08:23:39;;;;;;;5.53;1.27;;;11.20;99.90;;;;;;5049244;28;20041;-64
2022/09/18 08:26:05;;;;;;;5.40;1.60;;;11.10;99.90;;;;;;5048174;28;20052;-63
2022/09/18 08:28:31;;;;;;;4.97;1.48;;;11.10;99.90;;;;;;5047502;28;20037;-62
2022/09/18 08:30:57;;;;;;;9.85;1.35;;;11.00;99.90;;;;;;5047991;28;20055;-62
2022/09/18 08:33:23;;;;;;;6.70;1.42;;;11.10;99.90;;;;;;5051592;28;20446;-63
2022/09/18 08:35:49;;;;;;;3.45;1.00;;;11.10;99.90;;;;;;5051442;28;20029;-63
2022/09/18 08:38:15;;;;;;;3.75;1.15;;;11.10;99.90;;;;;;5047044;28;20958;-64
2022/09/18 08:41:22;;;;;;;4.15;1.27;;;11.10;99.90;;;;;;5049991;28;20049;-64
2022/09/18 08:44:04;;;;;;;5.93;1.73;;;11.10;99.90;;;;;;5052521;28;20064;-63
2022/09/18 08:46:30;;;;;;;6.88;1.55;;;11.20;99.90;;;;;;5045064;28;20037;-64
2022/09/18 08:49:21;;;;;;;8.20;1.38;;;11.20;99.90;;;;;;5041924;28;20077;-65
2022/09/18 08:52:05;;;;;;;10.13;1.48;;;11.30;99.90;;;;;;5049955;28;20071;-65
2022/09/18 08:54:57;;;;;;;5.88;1.55;;;11.30;99.90;;;;;;5051983;28;20041;-64
2022/09/18 08:57:26;;;;;;;5.60;1.40;;;11.40;99.90;;;;;;5047194;28;20041;-66
2022/09/18 09:00:00;;;;;;;6.50;1.60;;;11.40;99.90;;;;;;5050579;28;20037;-65
2022/09/18 09:02:50;;;;;;;4.70;1.35;;;11.50;99.90;;;;;;5040630;28;20463;-65
2022/09/18 09:05:31;;;;;;;7.40;1.80;;;11.50;99.90;;;;;;5050820;28;20094;-64
2022/09/18 09:08:32;;;;;;;4.97;1.40;;;11.50;99.90;;;;;;5044368;28;20073;-63
2022/09/18 09:11:27;;;;;;;6.68;1.58;;;11.50;99.90;;;;;;5045095;28;20037;-64
2022/09/18 09:14:39;;;;;;;5.30;1.50;;;11.50;99.90;;;;;;5045426;28;20044;-63
2022/09/18 09:17:23;;;;;;;5.63;1.45;;;11.60;99.90;;;;;;5006589;28;20091;-65
2022/09/18 09:20:02;;;;;;;5.18;1.45;;;11.50;99.90;;;;;;5051231;28;20037;-66
2022/09/18 09:22:35;;;;;;;2.10;1.10;;;11.60;99.90;;;;;;5051974;28;20563;-65
2022/09/18 09:25:33;;;;;;;6.50;1.40;;;11.60;99.90;;;;;;5050485;28;20033;-66
2022/09/18 09:28:07;;;;;;;4.40;1.67;;;11.60;99.90;;;;;;5053539;28;20123;-66
2022/09/18 09:30:34;;;;;;;4.38;1.27;;;11.60;99.90;;;;;;5051342;28;20029;-66
2022/09/18 09:33:29;;;;;;;9.20;1.80;;;11.60;99.90;;;;;;5049259;28;20482;-66
2022/09/18 09:36:02;;;;;;;3.58;1.30;;;11.60;99.90;;;;;;5041231;28;20483;-66
2022/09/18 09:38:57;;;;;;;3.97;1.10;;;11.60;99.90;;;;;;5057146;28;20112;-66
2022/09/18 09:41:36;;;;;;;4.63;1.30;;;11.60;99.90;;;;;;5030541;28;20580;-66
2022/09/18 09:44:40;;;;;;;5.82;1.27;;;11.60;99.90;;;;;;5045978;28;20033;-64
2022/09/18 09:47:20;;;;;;;4.70;1.30;;;11.60;99.90;;;;;;4984041;28;20039;-64
2022/09/18 09:50:15;;;;;;;5.53;1.20;;;11.60;99.90;;;;;;5040169;28;20048;-65
2022/09/18 09:52:45;;;;;;;4.50;1.20;;;11.60;99.90;;;;;;5048591;28;20040;-65
2022/09/18 09:55:16;;;;;;;3.30;1.20;;;11.60;99.90;;;;;;5050057;28;20555;-65
2022/09/18 09:57:51;;;;;;;6.55;1.48;;;11.60;99.90;;;;;;5050315;28;20073;-65
2022/09/18 10:00:19;;;;;;;5.15;1.30;;;11.60;99.90;;;;;;5047316;28;20049;-65
2022/09/18 10:03:16;;;;;;;6.68;1.48;;;11.60;99.90;;;;;;5049783;28;20039;-65
2022/09/18 10:05:57;;;;;;;3.22;1.23;;;11.60;99.90;;;;;;5037311;28;20044;-65
2022/09/18 10:08:37;;;;;;;4.47;1.38;;;11.70;99.90;;;;;;5049636;28;20495;-65
2022/09/18 10:11:10;;;;;;;6.80;1.30;;;11.60;99.90;;;;;;5054786;28;20501;-64
2022/09/18 10:13:45;;;;;;;4.38;1.10;;;11.70;99.90;;;;;;5053334;28;20502;-65
2022/09/18 10:16:33;;;;;;;7.32;1.20;;;11.70;99.90;;;;;;5048735;28;20073;-65
2022/09/18 10:19:00;;;;;;;7.95;1.13;;;11.70;99.90;;;;;;5093963;22;20044;-64
2022/09/18 10:21:30;;;;;;;3.45;1.10;;;11.70;99.90;;;;;;5066536;28;20505;-63
2022/09/18 10:24:17;;;;;;;4.65;1.40;;;11.70;99.90;;;;;;5034719;28;20468;-64
2022/09/18 10:26:51;;;;;;;2.35;1.10;;;11.70;99.90;;;;;;5065695;28;20706;-64
2022/09/18 10:29:17;;;;;;;6.72;1.40;;;11.70;99.90;;;;;;5064924;28;20733;-64
2022/09/18 10:31:55;;;;;;;3.17;1.20;;;11.70;99.90;;;;;;5068229;28;20067;-64
2022/09/18 10:34:32;;;;;;;5.82;1.58;;;11.70;99.90;;;;;;5061965;28;20066;-64
2022/09/18 10:36:59;;;;;;;4.93;1.27;;;11.70;99.90;;;;;;5061972;28;20464;-64
2022/09/18 10:39:37;;;;;;;6.60;1.50;;;11.80;99.90;;;;;;5052661;28;20052;-64
2022/09/18 10:42:05;;;;;;;4.72;1.50;;;11.80;99.90;;;;;;5069945;28;20036;-63
2022/09/18 10:44:35;;;;;;;4.32;1.40;;;11.80;99.90;;;;;;5058590;28;20045;-64
2022/09/18 10:47:17;;;;;;;7.95;1.35;;;11.80;99.90;;;;;;5070346;28;20028;-63
2022/09/18 10:50:10;;;;;;;4.35;1.50;;;11.90;99.90;;;;;;5070789;28;20487;-64
2022/09/18 10:52:39;;;;;;;6.03;1.60;;;11.90;99.90;;;;;;5062481;28;20086;-64
2022/09/18 10:55:05;;;;;;;6.75;1.63;;;11.90;99.90;;;;;;5070130;28;20394;-64
2022/09/18 10:57:36;;;;;;;6.68;1.33;;;11.90;99.90;;;;;;5070796;28;20046;-64
2022/09/18 11:00:19;;;;;;;6.82;1.50;;;11.90;99.90;;;;;;5065682;28;20037;-64
2022/09/18 11:02:58;;;;;;;6.07;1.67;;;12.00;99.90;;;;;;5050791;28;20168;-64
2022/09/18 11:05:33;;;;;;;4.85;1.33;;;12.00;99.90;;;;;;5050003;28;20554;-64
2022/09/18 11:08:21;;;;;;;5.15;1.50;;;12.00;99.90;;;;;;5063533;28;20116;-64
2022/09/18 11:10:50;;;;;;;5.97;1.50;;;12.00;99.90;;;;;;5060517;28;20052;-64
2022/09/18 11:13:26;;;;;;;8.30;1.58;;;12.10;99.90;;;;;;5070369;28;20033;-64
2022/09/18 11:16:01;;;;;;;5.40;1.40;;;12.10;99.90;;;;;;5059160;28;20545;-64
2022/09/18 11:18:28;;;;;;;3.38;1.20;;;12.10;99.90;;;;;;5064182;28;20068;-64
2022/09/18 11:20:56;;;;;;;9.43;1.63;;;12.10;99.90;;;;;;5046882;28;20386;-64
2022/09/18 11:23:31;;;;;;;4.25;1.52;;;12.20;99.90;;;;;;5069836;28;20043;-64
2022/09/18 11:26:29;;;;;;;4.75;1.35;;;12.20;99.90;;;;;;5063313;28;20048;-64
2022/09/18 11:28:57;;;;;;;8.70;2.10;;;12.20;99.90;;;;;;5069664;28;20403;-65
2022/09/18 11:31:24;;;;;;;3.90;1.38;;;12.20;99.90;;;;;;5069893;28;20032;-65
2022/09/18 11:33:54;;;;;;;7.07;1.50;;;12.30;99.90;;;;;;5056369;28;20033;-65
2022/09/18 11:36:27;;;;;;;7.15;1.60;;;12.30;99.90;;;;;;5059580;28;20036;-64
2022/09/18 11:38:54;;;;;;;5.82;1.45;;;12.30;99.90;;;;;;5067456;28;20024;-65
2022/09/18 11:41:26;;;;;;;5.25;1.60;;;12.40;99.90;;;;;;5065029;28;20040;-65
2022/09/18 11:44:00;;;;;;;5.50;1.27;;;12.40;99.90;;;;;;5069453;28;20089;-64
2022/09/18 11:46:42;;;;;;;4.18;1.30;;;12.40;99.90;;;;;;5069953;28;20058;-64
2022/09/18 11:49:20;;;;;;;7.43;1.70;;;12.50;99.90;;;;;;5065867;28;20116;-64
2022/09/18 11:51:51;;;;;;;4.47;1.50;;;12.50;99.90;;;;;;5061850;28;20063;-64
2022/09/18 11:54:24;;;;;;;8.43;1.75;;;12.60;99.90;;;;;;5069035;28;20051;-64
2022/09/18 11:56:56;;;;;;;7.63;1.48;;;12.60;99.90;;;;;;5058248;28;20040;-63
2022/09/18 11:59:41;;;;;;;7.68;1.70;;;12.60;99.90;;;;;;5063128;28;20045;-63
2022/09/18 12:03:02;;;;;;;5.45;1.60;;;12.70;99.90;;;;;;5049057;28;20044;-62
2022/09/18 12:06:09;;;;;;;7.88;1.88;;;12.80;99.90;;;;;;4974361;28;20995;-63
2022/09/18 12:08:57;;;;;;;10.55;1.90;;;12.80;99.90;;;;;;5052259;28;20127;-63
2022/09/18 12:11:43;;;;;;;6.28;1.35;;;12.90;99.90;;;;;;5071299;28;20036;-63
2022/09/18 12:14:32;;;;;;;8.52;1.70;;;12.90;99.90;;;;;;5067295;28;20045;-63
2022/09/18 12:17:03;;;;;;;3.90;1.35;;;13.00;99.90;;;;;;5065976;28;20408;-64
2022/09/18 12:19:36;;;;;;;5.38;1.33;;;13.10;99.90;;;;;;5069649;28;20036;-63
2022/09/18 12:22:09;;;;;;;7.50;1.60;;;13.20;99.90;;;;;;5066990;28;20115;-64
2022/09/18 12:24:35;;;;;;;6.88;1.73;;;13.20;99.90;;;;;;5063213;28;20036;-64
2022/09/18 12:27:27;;;;;;;9.52;1.85;;;13.30;99.90;;;;;;5071805;28;20674;-63
2022/09/18 12:30:01;;;;;;;5.45;1.30;;;13.40;99.90;;;;;;5067021;28;20499;-64
2022/09/18 12:32:53;;;;;;;5.38;1.75;;;13.40;99.90;;;;;;5065684;28;20497;-64
2022/09/18 12:35:45;;;;;;;9.38;1.70;;;13.50;99.90;;;;;;5054382;28;20052;-64
2022/09/18 12:39:05;;;;;;;3.70;1.40;;;13.50;99.90;;;;;;5067139;28;20588;-63
2022/09/18 12:41:57;;;;;;;9.48;1.52;;;13.40;99.90;;;;;;4989818;28;20046;-64
2022/09/18 12:44:34;;;;;;;5.28;1.58;;;13.50;99.90;;;;;;5053883;28;20059;-64
2022/09/18 12:47:12;;;;;;;7.88;1.70;;;13.50;99.90;;;;;;5067849;28;20116;-64
2022/09/18 12:49:58;;;;;;;6.15;2.08;;;13.50;99.90;;;;;;5063456;28;20043;-64
2022/09/18 12:52:57;;;;;;;6.97;1.70;;;13.50;99.90;;;;;;5066165;28;20165;-65
2022/09/18 12:55:36;;;;;;;8.25;1.75;;;13.50;99.90;;;;;;5066296;28;20151;-64
2022/09/18 12:58:39;;;;;;;8.25;2.22;;;13.50;99.90;;;;;;5071606;28;20494;-65
2022/09/18 13:01:20;;;;;;;7.20;1.75;;;13.60;99.90;;;;;;5062803;28;20040;-64
2022/09/18 13:03:47;;;;;;;;;;;13.60;99.90;;;;;;5060472;28;20028;-64
2022/09/18 13:06:22;;;;;;;7.15;1.52;;;13.60;99.90;;;;;;5067021;28;19916;-64
2022/09/18 13:08:55;;;;;;;7.40;1.73;;;13.50;99.90;;;;;;5039472;28;20033;-64
2022/09/18 13:11:46;;;;;;;8.18;1.60;;;13.60;99.90;;;;;;5066522;28;20040;-65
2022/09/18 13:14:38;;;;;;;7.50;1.70;;;13.60;99.90;;;;;;5070192;28;20051;-64